createdAt,value
2019-04-16T00:01:00.939Z,2.0031
2019-04-16T00:02:10.012Z,2.0031
2019-04-16T00:03:20.349Z,2.0031
2019-04-16T00:04:31.949Z,2.0192
2019-04-16T00:05:40.299Z,2.1313
2019-04-16T00:06:48.275Z,2.0325
2019-04-16T00:07:56.964Z,2.0592
2019-04-16T00:09:05.919Z,2.1313
2019-04-16T00:10:14.959Z,2.1580
2019-04-16T00:11:23.294Z,2.0592
2019-04-16T00:12:32.940Z,1.9604
2019-04-16T00:13:41.292Z,1.9470
2019-04-16T00:14:50.902Z,2.0031
2019-04-16T00:15:59.944Z,1.9337
2019-04-16T00:17:09.013Z,1.9043
2019-04-16T00:18:18.744Z,1.9764
2019-04-16T00:19:26.891Z,1.8456
2019-04-16T00:20:37.933Z,1.8456
2019-04-16T00:21:46.987Z,1.7895
2019-04-16T00:22:56.016Z,1.6907
2019-04-16T00:24:04.796Z,1.6213
2019-04-16T00:25:13.975Z,1.6773
2019-04-16T00:26:26.580Z,1.7201
2019-04-16T00:27:35.734Z,1.7761
2019-04-16T00:28:44.285Z,1.8750
2019-04-16T00:29:53.005Z,1.8883
2019-04-16T00:31:01.277Z,1.7761
2019-04-16T00:32:10.011Z,1.8322
2019-04-16T00:33:18.920Z,1.8616
2019-04-16T00:34:27.901Z,1.8750
2019-04-16T00:35:36.951Z,1.9470
2019-04-16T00:36:48.419Z,2.0886
2019-04-16T00:37:58.415Z,2.0325
2019-04-16T00:39:06.953Z,1.9043
2019-04-16T00:40:15.910Z,1.8883
2019-04-16T00:41:25.057Z,1.8750
2019-04-16T00:42:34.002Z,1.8616
2019-04-16T00:43:44.083Z,1.7628
2019-04-16T00:44:54.006Z,1.5652
2019-04-16T00:46:03.110Z,1.7895
2019-04-16T00:47:11.967Z,1.8189
2019-04-16T00:48:20.907Z,1.7761
2019-04-16T00:49:31.003Z,1.7201
2019-04-16T00:50:39.301Z,1.7761
2019-04-16T00:51:47.967Z,1.7468
2019-04-16T00:52:56.293Z,1.7201
2019-04-16T00:54:09.891Z,1.7201
2019-04-16T00:55:18.295Z,1.6213
2019-04-16T00:56:26.888Z,1.5492
2019-04-16T00:57:35.950Z,1.5358
2019-04-16T00:58:44.973Z,1.5225
2019-04-16T00:59:56.283Z,1.5785
2019-04-16T01:01:05.264Z,1.6907
2019-04-16T01:02:12.921Z,1.6213
2019-04-16T01:03:21.991Z,1.5091
2019-04-16T01:04:30.968Z,1.4931
2019-04-16T01:05:40.301Z,1.5358
2019-04-16T01:06:48.871Z,1.5358
2019-04-16T01:07:57.297Z,1.5358
2019-04-16T01:09:05.988Z,1.5652
2019-04-16T01:10:13.314Z,1.5492
2019-04-16T01:11:21.971Z,1.4797
2019-04-16T01:12:30.267Z,1.4664
2019-04-16T01:13:38.910Z,1.4103
2019-04-16T01:14:47.973Z,1.4504
2019-04-16T01:15:57.194Z,1.4797
2019-04-16T01:17:05.982Z,1.4370
2019-04-16T01:18:14.302Z,1.4237
2019-04-16T01:19:23.028Z,1.4664
2019-04-16T01:20:31.906Z,1.5652
2019-04-16T01:21:44.517Z,1.5785
2019-04-16T01:22:54.081Z,1.5091
2019-04-16T01:24:02.931Z,1.4237
2019-04-16T01:25:11.970Z,1.3249
2019-04-16T01:26:21.220Z,1.2688
2019-04-16T01:27:29.606Z,1.1406
2019-04-16T01:28:38.016Z,1.1833
2019-04-16T01:29:46.960Z,1.2127
2019-04-16T01:30:55.998Z,1.2394
2019-04-16T01:32:10.292Z,1.3115
2019-04-16T01:33:18.292Z,1.4103
2019-04-16T01:34:26.945Z,1.4504
2019-04-16T01:35:35.306Z,1.5225
2019-04-16T01:36:44.342Z,1.4237
2019-04-16T01:37:56.538Z,1.3676
2019-04-16T01:39:16.087Z,1.4103
2019-04-16T01:40:19.354Z,1.3676
2019-04-16T01:41:27.990Z,1.4504
2019-04-16T01:42:36.952Z,1.4664
2019-04-16T01:43:45.991Z,1.3542
2019-04-16T01:44:54.056Z,1.5225
2019-04-16T01:46:02.609Z,1.5785
2019-04-16T01:47:11.871Z,1.4504
2019-04-16T01:48:19.318Z,1.3676
2019-04-16T01:49:27.933Z,1.2261
2019-04-16T01:50:36.278Z,1.1406
2019-04-16T01:51:47.445Z,1.1273
2019-04-16T01:52:57.265Z,1.0685
2019-04-16T01:54:05.928Z,0.9136
2019-04-16T01:55:15.057Z,0.8843
2019-04-16T01:56:27.976Z,0.8576
2019-04-16T01:57:36.281Z,0.8442
2019-04-16T01:58:44.335Z,0.8442
2019-04-16T01:59:53.887Z,0.8709
2019-04-16T02:01:02.364Z,0.9831
2019-04-16T02:02:14.579Z,1.1566
2019-04-16T02:03:24.979Z,1.2821
2019-04-16T02:04:33.781Z,1.1967
2019-04-16T02:05:42.982Z,1.1273
2019-04-16T02:06:54.308Z,0.8709
2019-04-16T02:08:05.329Z,0.7294
2019-04-16T02:09:22.501Z,0.9831
2019-04-16T02:10:26.908Z,1.1006
2019-04-16T02:11:38.816Z,0.9991
2019-04-16T02:12:50.953Z,1.1406
2019-04-16T02:13:59.977Z,1.0552
2019-04-16T02:15:09.094Z,1.0819
2019-04-16T02:16:17.968Z,1.0124
2019-04-16T02:17:27.054Z,1.1700
2019-04-16T02:18:36.917Z,1.1406
2019-04-16T02:19:45.262Z,1.0391
2019-04-16T02:20:52.846Z,0.8282
2019-04-16T02:22:02.015Z,0.9003
2019-04-16T02:23:13.581Z,0.8442
2019-04-16T02:24:24.297Z,0.8843
2019-04-16T02:25:33.947Z,0.7027
2019-04-16T02:26:42.972Z,0.6733
2019-04-16T02:27:54.222Z,0.3635
2019-04-16T02:29:04.965Z,0.5318
2019-04-16T02:30:13.018Z,0.6039
2019-04-16T02:31:21.294Z,0.5611
2019-04-16T02:32:30.043Z,0.7454
2019-04-16T02:33:38.979Z,0.8282
2019-04-16T02:34:47.299Z,0.5745
2019-04-16T02:35:55.978Z,0.8442
2019-04-16T02:37:04.937Z,0.8576
2019-04-16T02:38:14.182Z,1.0391
2019-04-16T02:39:46.288Z,1.0552
2019-04-16T02:40:36.905Z,1.0685
2019-04-16T02:41:45.965Z,1.3249
2019-04-16T02:42:54.969Z,1.4103
2019-04-16T02:44:04.026Z,1.5492
2019-04-16T02:45:13.168Z,1.5091
2019-04-16T02:46:22.066Z,1.4664
2019-04-16T02:47:30.982Z,1.2955
2019-04-16T02:48:38.935Z,1.1700
2019-04-16T02:49:47.298Z,0.9697
2019-04-16T02:50:55.311Z,1.0124
2019-04-16T02:52:04.017Z,0.9136
2019-04-16T02:53:13.113Z,1.1566
2019-04-16T02:54:21.929Z,1.2394
2019-04-16T02:55:30.919Z,1.4370
2019-04-16T02:56:39.398Z,1.4664
2019-04-16T02:57:48.046Z,1.4237
2019-04-16T02:58:56.299Z,1.4931
2019-04-16T03:00:05.384Z,1.3676
2019-04-16T03:01:13.295Z,1.3542
2019-04-16T03:02:23.091Z,1.2955
2019-04-16T03:03:32.635Z,1.3115
2019-04-16T03:04:41.857Z,1.3115
2019-04-16T03:05:50.996Z,1.1700
2019-04-16T03:07:02.784Z,1.1967
2019-04-16T03:08:12.265Z,1.1967
2019-04-16T03:09:21.000Z,1.2821
2019-04-16T03:10:29.357Z,1.3249
2019-04-16T03:11:37.383Z,1.4237
2019-04-16T03:12:46.131Z,1.5358
2019-04-16T03:13:58.288Z,1.5225
2019-04-16T03:15:07.294Z,1.6213
2019-04-16T03:16:14.919Z,1.6773
2019-04-16T03:17:24.182Z,1.5919
2019-04-16T03:18:33.168Z,1.5652
2019-04-16T03:19:41.290Z,1.5091
2019-04-16T03:20:52.474Z,1.3382
2019-04-16T03:22:03.736Z,1.1967
2019-04-16T03:23:12.283Z,1.1006
2019-04-16T03:24:20.950Z,1.1006
2019-04-16T03:25:30.034Z,1.2955
2019-04-16T03:26:38.913Z,1.3676
2019-04-16T03:27:47.932Z,1.3809
2019-04-16T03:28:59.133Z,1.3249
2019-04-16T03:30:07.365Z,1.2955
2019-04-16T03:31:22.287Z,1.0685
2019-04-16T03:32:35.308Z,0.9831
2019-04-16T03:33:50.308Z,1.3676
2019-04-16T03:34:57.278Z,1.1967
2019-04-16T03:36:06.090Z,1.0685
2019-04-16T03:37:14.297Z,1.0258
2019-04-16T03:38:23.203Z,1.2554
2019-04-16T03:39:32.466Z,1.2821
2019-04-16T03:40:39.917Z,1.4237
2019-04-16T03:41:48.288Z,1.4103
2019-04-16T03:42:59.005Z,1.4103
2019-04-16T03:44:09.002Z,1.6213
2019-04-16T03:45:17.276Z,1.4664
2019-04-16T03:46:26.258Z,1.3943
2019-04-16T03:47:35.014Z,1.3249
2019-04-16T03:48:44.020Z,1.2554
2019-04-16T03:49:56.400Z,1.1566
2019-04-16T03:51:06.476Z,1.0552
2019-04-16T03:52:15.163Z,1.0552
2019-04-16T03:53:25.086Z,1.0124
2019-04-16T03:54:34.998Z,1.2955
2019-04-16T03:55:43.933Z,1.3382
2019-04-16T03:56:52.253Z,1.2688
2019-04-16T03:58:05.171Z,1.1700
2019-04-16T03:59:13.887Z,1.1273
2019-04-16T04:00:22.309Z,0.9831
2019-04-16T04:01:30.977Z,0.9564
2019-04-16T04:02:39.881Z,0.8576
2019-04-16T04:03:48.288Z,0.8843
2019-04-16T04:04:57.628Z,1.1406
2019-04-16T04:06:09.402Z,1.1406
2019-04-16T04:07:18.290Z,1.1833
2019-04-16T04:08:27.008Z,1.0685
2019-04-16T04:09:36.005Z,0.9831
2019-04-16T04:10:44.999Z,1.1273
2019-04-16T04:11:53.986Z,0.9136
2019-04-16T04:13:04.921Z,0.9831
2019-04-16T04:14:13.284Z,1.0552
2019-04-16T04:15:25.924Z,1.2688
2019-04-16T04:16:35.948Z,1.1967
2019-04-16T04:17:45.310Z,1.4504
2019-04-16T04:18:53.905Z,1.5225
2019-04-16T04:20:02.930Z,1.5785
2019-04-16T04:21:11.993Z,1.4504
2019-04-16T04:22:22.720Z,1.3382
2019-04-16T04:23:34.291Z,1.1700
2019-04-16T04:24:43.055Z,1.1139
2019-04-16T04:25:51.285Z,1.1273
2019-04-16T04:26:59.273Z,1.1139
2019-04-16T04:28:08.249Z,1.0552
2019-04-16T04:29:16.957Z,1.1006
2019-04-16T04:30:28.906Z,1.1139
2019-04-16T04:31:38.964Z,1.0819
2019-04-16T04:32:51.013Z,1.1406
2019-04-16T04:34:00.013Z,1.1700
2019-04-16T04:35:09.193Z,1.1833
2019-04-16T04:36:19.602Z,1.1406
2019-04-16T04:37:30.904Z,1.2688
2019-04-16T04:38:40.309Z,1.2821
2019-04-16T04:39:48.313Z,1.0819
2019-04-16T04:40:59.623Z,1.2955
2019-04-16T04:42:09.009Z,1.1967
2019-04-16T04:43:17.281Z,1.2821
2019-04-16T04:44:25.961Z,1.0819
2019-04-16T04:45:37.634Z,0.9403
2019-04-16T04:46:48.965Z,0.9270
2019-04-16T04:47:58.065Z,0.8709
2019-04-16T04:49:07.204Z,1.1833
2019-04-16T04:50:15.946Z,1.3943
2019-04-16T04:51:24.295Z,1.6213
2019-04-16T04:52:32.941Z,1.8189
2019-04-16T04:53:41.940Z,1.9043
2019-04-16T04:54:51.409Z,2.1153
2019-04-16T04:56:03.963Z,2.0459
2019-04-16T04:57:12.953Z,2.0592
2019-04-16T04:58:21.918Z,2.0192
2019-04-16T04:59:30.398Z,2.0592
2019-04-16T05:00:40.425Z,2.0752
2019-04-16T05:01:49.340Z,2.1740
2019-04-16T05:02:57.267Z,2.2141
2019-04-16T05:04:05.681Z,2.2568
2019-04-16T05:05:15.254Z,2.3850
2019-04-16T05:06:26.735Z,2.4277
2019-04-16T05:07:36.464Z,2.5399
2019-04-16T05:08:45.008Z,2.5532
2019-04-16T05:09:53.955Z,2.4838
2019-04-16T05:11:03.209Z,2.5399
2019-04-16T05:12:11.931Z,2.5959
2019-04-16T05:13:23.958Z,2.6093
2019-04-16T05:14:33.945Z,2.6226
2019-04-16T05:15:43.241Z,2.6654
2019-04-16T05:16:51.384Z,2.7108
2019-04-16T05:18:00.053Z,2.7668
2019-04-16T05:19:13.839Z,2.8389
2019-04-16T05:20:22.392Z,2.8790
2019-04-16T05:21:31.147Z,2.8790
2019-04-16T05:22:40.985Z,2.9644
2019-04-16T05:23:50.007Z,2.9511
2019-04-16T05:25:01.344Z,2.9377
2019-04-16T05:26:11.797Z,2.9217
2019-04-16T05:27:21.165Z,2.9377
2019-04-16T05:28:30.011Z,2.9217
2019-04-16T05:29:38.302Z,2.8950
2019-04-16T05:30:51.860Z,2.8523
2019-04-16T05:32:00.278Z,2.8950
2019-04-16T05:33:08.268Z,2.9084
2019-04-16T05:34:18.815Z,2.9377
2019-04-16T05:35:28.233Z,2.9084
2019-04-16T05:36:36.390Z,2.8656
2019-04-16T05:37:43.929Z,2.8523
2019-04-16T05:38:55.445Z,2.9938
2019-04-16T05:40:05.932Z,2.9511
2019-04-16T05:41:20.264Z,2.9377
2019-04-16T05:42:27.307Z,3.0499
2019-04-16T05:43:36.231Z,3.1060
2019-04-16T05:44:44.273Z,3.1621
2019-04-16T05:45:52.336Z,3.2902
2019-04-16T05:47:01.145Z,3.3864
2019-04-16T05:48:11.186Z,3.4745
2019-04-16T05:49:24.855Z,3.6587
2019-04-16T05:50:33.293Z,3.8003
2019-04-16T05:51:42.668Z,3.8563
2019-04-16T05:52:52.168Z,3.9258
2019-04-16T05:54:00.370Z,3.9258
2019-04-16T05:55:09.063Z,4.0112
2019-04-16T05:56:22.641Z,4.1928
2019-04-16T05:57:31.371Z,4.3103
2019-04-16T05:58:39.910Z,4.3931
2019-04-16T05:59:49.029Z,4.4358
2019-04-16T06:00:57.988Z,4.4785
2019-04-16T06:02:07.137Z,4.5480
2019-04-16T06:03:20.669Z,4.5907
2019-04-16T06:04:30.023Z,4.6200
2019-04-16T06:05:37.972Z,4.6200
2019-04-16T06:06:47.159Z,4.7749
2019-04-16T06:07:55.576Z,4.9298
2019-04-16T06:09:02.755Z,5.1007
2019-04-16T06:10:17.057Z,5.2689
2019-04-16T06:11:29.224Z,5.5386
2019-04-16T06:12:40.167Z,5.6214
2019-04-16T06:13:48.948Z,5.7362
2019-04-16T06:14:57.997Z,5.7763
2019-04-16T06:16:06.925Z,5.8057
2019-04-16T06:17:15.965Z,5.8938
2019-04-16T06:18:24.894Z,5.9926
2019-04-16T06:19:34.441Z,6.1048
2019-04-16T06:20:43.059Z,6.1608
2019-04-16T06:24:08.376Z,6.4012
2019-04-16T06:24:08.376Z,6.2596
2019-04-16T06:25:18.183Z,6.4412
2019-04-16T06:26:27.958Z,6.5400
2019-04-16T06:27:38.668Z,6.6976
2019-04-16T06:28:48.333Z,6.7830
2019-04-16T06:30:01.210Z,6.7536
2019-04-16T06:31:11.337Z,6.7136
2019-04-16T06:32:22.154Z,6.8124
2019-04-16T06:33:31.674Z,6.8124
2019-04-16T06:34:41.933Z,6.7536
2019-04-16T06:35:51.835Z,6.5988
2019-04-16T06:37:01.958Z,6.4012
2019-04-16T06:38:12.053Z,6.3024
2019-04-16T06:39:22.045Z,6.2169
2019-04-16T06:40:32.852Z,6.0620
2019-04-16T06:41:47.665Z,5.9926
2019-04-16T06:42:58.001Z,6.0487
2019-04-16T06:44:09.878Z,6.1875
2019-04-16T06:45:20.499Z,6.1048
2019-04-16T06:46:29.755Z,6.0887
2019-04-16T06:47:41.782Z,6.2303
2019-04-16T06:48:51.290Z,6.5827
2019-04-16T06:50:00.306Z,6.6575
2019-04-16T06:51:12.507Z,6.8257
2019-04-16T06:52:21.909Z,6.9112
2019-04-16T06:53:32.317Z,7.1489
2019-04-16T06:54:45.310Z,7.3037
2019-04-16T06:55:56.786Z,7.5601
2019-04-16T06:57:05.949Z,7.6883
2019-04-16T06:58:16.428Z,7.7710
2019-04-16T06:59:29.337Z,7.8004
2019-04-16T07:00:40.005Z,8.0247
2019-04-16T07:01:50.068Z,8.0541
2019-04-16T07:03:02.468Z,8.2677
2019-04-16T07:04:13.005Z,8.4359
2019-04-16T07:05:33.266Z,8.5214
2019-04-16T07:06:43.730Z,8.6896
2019-04-16T07:07:54.237Z,8.7190
2019-04-16T07:09:04.390Z,8.7617
2019-04-16T07:10:15.047Z,8.9166
2019-04-16T07:11:26.161Z,9.0047
2019-04-16T07:13:58.362Z,9.5121
2019-04-16T07:15:07.699Z,9.6963
2019-04-16T07:16:16.330Z,9.5949
2019-04-16T07:17:26.052Z,9.7684
2019-04-16T07:18:38.579Z,9.9073
2019-04-16T07:19:48.289Z,9.9928
2019-04-16T07:20:57.355Z,9.9367
2019-04-16T07:22:07.040Z,9.8940
2019-04-16T07:23:17.767Z,9.6670
2019-04-16T07:24:30.807Z,9.6242
2019-04-16T07:25:44.144Z,9.3145
2019-04-16T07:26:56.618Z,9.2424
2019-04-16T07:28:09.272Z,8.8739
2019-04-16T07:29:24.307Z,8.7751
2019-04-16T07:30:38.419Z,8.7484
2019-04-16T07:31:53.251Z,8.6336
2019-04-16T07:33:05.524Z,8.5081
2019-04-16T07:34:14.289Z,8.5348
2019-04-16T07:35:27.889Z,8.6336
2019-04-16T07:36:42.101Z,8.5935
2019-04-16T07:37:53.018Z,8.5641
2019-04-16T07:39:07.631Z,8.5935
2019-04-16T07:40:16.369Z,8.6202
2019-04-16T07:41:27.295Z,8.6896
2019-04-16T07:42:51.692Z,8.5935
2019-04-16T07:43:57.218Z,8.4947
2019-04-16T07:45:11.431Z,8.6069
2019-04-16T07:46:21.392Z,8.7751
2019-04-16T07:47:32.966Z,8.8045
2019-04-16T07:48:45.984Z,8.8872
2019-04-16T07:49:59.855Z,8.9754
2019-04-16T07:51:10.360Z,9.0448
2019-04-16T07:52:21.334Z,9.2851
2019-04-16T07:53:31.538Z,9.5522
2019-04-16T07:54:40.311Z,9.6670
2019-04-16T07:55:49.431Z,9.7818
2019-04-16T07:56:58.314Z,9.9634
2019-04-16T07:58:08.365Z,10.2037
2019-04-16T07:59:19.026Z,10.4734
2019-04-16T08:00:29.119Z,10.7271
2019-04-16T08:01:39.932Z,10.8553
2019-04-16T08:02:53.867Z,10.8259
2019-04-16T08:04:03.612Z,10.6310
2019-04-16T08:05:12.328Z,10.4334
2019-04-16T08:06:21.334Z,10.3906
2019-04-16T08:07:32.251Z,10.4601
2019-04-16T08:08:42.646Z,10.6149
2019-04-16T08:09:51.302Z,10.4894
2019-04-16T08:12:33.326Z,10.5589
2019-04-16T08:13:45.764Z,10.2598
2019-04-16T08:14:54.362Z,10.4734
2019-04-16T08:16:04.317Z,10.5589
2019-04-16T08:17:14.031Z,10.7137
2019-04-16T08:19:44.797Z,10.8259
2019-04-16T08:21:01.701Z,10.7431
2019-04-16T08:22:15.530Z,10.7431
2019-04-16T08:23:25.077Z,10.5161
2019-04-16T08:24:34.393Z,10.5322
2019-04-16T08:25:44.761Z,10.5455
2019-04-16T08:26:56.254Z,10.5455
2019-04-16T08:28:09.443Z,10.5882
2019-04-16T08:29:18.501Z,10.5161
2019-04-16T08:30:27.391Z,10.5161
2019-04-16T08:33:05.481Z,10.8125
2019-04-16T08:35:39.339Z,10.9808
2019-04-16T08:38:20.674Z,11.1971
2019-04-16T08:39:29.375Z,11.2959
2019-04-16T08:42:06.817Z,11.8887
2019-04-16T08:43:22.356Z,12.2412
2019-04-16T08:44:35.796Z,12.2545
2019-04-16T08:49:54.081Z,12.4414
2019-04-16T08:52:26.290Z,12.7939
2019-04-16T08:54:55.400Z,12.3827
2019-04-16T08:56:05.020Z,12.6818
2019-04-16T08:57:18.041Z,12.6818
2019-04-16T08:59:54.858Z,12.0596
2019-04-16T09:01:04.296Z,12.2705
2019-04-16T09:02:13.816Z,12.4708
2019-04-16T09:03:26.716Z,12.4708
2019-04-16T09:04:37.311Z,12.7245
2019-04-16T09:05:46.293Z,12.5269
2019-04-16T09:07:09.634Z,12.6524
2019-04-16T09:08:13.943Z,12.7939
2019-04-16T09:09:25.555Z,12.5963
2019-04-16T09:10:34.390Z,12.5963
2019-04-16T09:11:44.194Z,12.9194
2019-04-16T09:13:03.319Z,12.8073
2019-04-16T09:14:16.841Z,12.8367
2019-04-16T09:15:29.343Z,12.7939
2019-04-16T09:16:45.219Z,12.9622
2019-04-16T09:17:57.093Z,12.9194
2019-04-16T09:19:08.593Z,12.8073
2019-04-16T09:20:17.272Z,12.8073
2019-04-16T09:21:31.255Z,12.8794
2019-04-16T09:24:08.862Z,13.6431
2019-04-16T09:25:22.987Z,13.8701
2019-04-16T09:26:36.437Z,13.9128
2019-04-16T09:30:30.925Z,14.4923
2019-04-16T09:33:01.886Z,15.0557
2019-04-16T09:34:10.481Z,14.4335
2019-04-16T09:35:20.752Z,13.9689
2019-04-16T09:40:36.588Z,14.5911
2019-04-16T09:42:01.755Z,14.5083
2019-04-16T09:43:17.441Z,14.7753
2019-04-16T09:47:16.733Z,15.4829
2019-04-16T09:52:38.562Z,14.8447
2019-04-16T09:55:19.634Z,15.0984
2019-04-16T09:56:30.116Z,14.9863
2019-04-16T09:57:39.994Z,15.0557
2019-04-16T10:03:01.356Z,15.7767
2019-04-16T10:04:15.655Z,14.9008
2019-04-16T10:09:37.586Z,16.2867
2019-04-16T10:13:35.747Z,16.0063
2019-04-16T10:14:48.576Z,15.5657
2019-04-16T10:15:57.403Z,15.2293
2019-04-16T10:17:06.341Z,15.3975
2019-04-16T10:19:56.724Z,15.1545
2019-04-16T10:21:08.474Z,15.1999
2019-04-16T10:22:17.310Z,15.7927
2019-04-16T10:23:29.673Z,15.7767
2019-04-16T10:24:59.775Z,15.7206
2019-04-16T10:26:08.348Z,15.6645
2019-04-16T10:28:39.346Z,16.1746
2019-04-16T10:31:14.699Z,15.7366
2019-04-16T10:38:16.410Z,15.4963
2019-04-16T10:39:26.358Z,15.5390
2019-04-16T10:40:39.933Z,15.9503
2019-04-16T10:43:09.336Z,15.9503
2019-04-16T10:45:51.170Z,16.2867
2019-04-16T10:47:01.492Z,16.5003
2019-04-16T10:49:30.473Z,16.3722
2019-04-16T10:52:04.855Z,15.7206
2019-04-16T10:54:39.817Z,16.6419
2019-04-16T10:55:50.557Z,16.7700
2019-04-16T10:56:59.313Z,17.1653
2019-04-16T10:58:10.147Z,17.1359
2019-04-16T10:59:23.027Z,17.1786
2019-04-16T11:00:39.373Z,17.4910
2019-04-16T11:04:35.953Z,17.3228
2019-04-16T11:05:45.372Z,17.1359
2019-04-16T11:06:58.927Z,16.8261
2019-04-16T11:08:09.431Z,16.9516
2019-04-16T11:09:22.097Z,17.0665
2019-04-16T11:10:31.345Z,17.1786
2019-04-16T11:11:44.898Z,16.6846
2019-04-16T11:12:54.317Z,16.5858
2019-04-16T11:14:03.376Z,16.5858
2019-04-16T11:15:35.246Z,16.6018
2019-04-16T11:16:45.032Z,16.9249
2019-04-16T11:19:24.561Z,17.4617
2019-04-16T11:20:34.643Z,17.8008
2019-04-16T11:21:44.713Z,17.1920
2019-04-16T11:22:56.041Z,17.0104
2019-04-16T11:24:08.191Z,17.3789
2019-04-16T11:25:21.218Z,16.8955
2019-04-16T11:26:32.950Z,16.4282
2019-04-16T11:27:42.445Z,16.0491
2019-04-16T11:31:35.345Z,15.8194
2019-04-16T11:32:43.667Z,15.4963
2019-04-16T11:39:29.250Z,15.8782
2019-04-16T11:42:13.101Z,15.9636
2019-04-16T11:43:25.747Z,15.7206
2019-04-16T11:44:38.178Z,16.0063
2019-04-16T11:45:48.136Z,16.0063
2019-04-16T11:46:58.409Z,16.1051
2019-04-16T11:48:07.381Z,16.5858
2019-04-16T11:49:18.294Z,16.6285
2019-04-16T11:50:29.650Z,16.5591
2019-04-16T11:51:38.250Z,16.2867
2019-04-16T11:52:48.364Z,16.5137
2019-04-16T11:54:00.699Z,16.4149
2019-04-16T11:55:10.067Z,16.1185
2019-04-16T11:56:22.497Z,15.8061
2019-04-16T11:57:37.069Z,15.9369
2019-04-16T11:58:47.541Z,16.1479
2019-04-16T12:00:06.714Z,16.1051
2019-04-16T12:01:11.354Z,16.0197
2019-04-16T12:02:20.557Z,16.2039
2019-04-16T12:03:34.928Z,16.1479
2019-04-16T12:04:55.856Z,15.9209
2019-04-16T12:06:10.623Z,15.7927
2019-04-16T12:07:20.003Z,15.9636
2019-04-16T12:08:30.004Z,16.0330
2019-04-16T12:09:39.358Z,16.1906
2019-04-16T12:10:49.381Z,16.4443
2019-04-16T12:12:00.281Z,16.7407
2019-04-16T12:13:09.909Z,16.9383
2019-04-16T12:14:30.775Z,16.7967
2019-04-16T12:15:36.541Z,16.5137
2019-04-16T12:16:46.101Z,16.3455
2019-04-16T12:17:55.487Z,16.3588
2019-04-16T12:19:05.243Z,16.5431
2019-04-16T12:20:14.386Z,16.5137
2019-04-16T12:21:24.244Z,16.4282
2019-04-16T12:22:36.962Z,16.0918
2019-04-16T12:23:47.090Z,15.6085
2019-04-16T12:24:57.530Z,15.5524
2019-04-16T12:26:09.404Z,15.7500
2019-04-16T12:27:19.747Z,15.3841
2019-04-16T12:28:30.123Z,15.5230
2019-04-16T12:29:41.435Z,15.4402
2019-04-16T12:30:51.365Z,15.6085
2019-04-16T12:32:03.588Z,15.5817
2019-04-16T12:33:15.198Z,15.6939
2019-04-16T12:34:25.736Z,15.7767
2019-04-16T12:35:35.657Z,15.5817
2019-04-16T12:36:46.859Z,15.6085
2019-04-16T12:37:58.433Z,15.4829
2019-04-16T12:39:10.140Z,15.6218
2019-04-16T12:40:21.172Z,15.8061
2019-04-16T12:41:30.298Z,15.8782
2019-04-16T12:42:42.875Z,16.0197
2019-04-16T12:43:51.789Z,15.9369
